Time;durP1;ratioP1;P1;durP2;ratioP2;P2;SDS_P1;SDS_P2;PMS_P1;PMS_P2;Temp;Humidity;BMP_temperature;BMP_pressure;BME280_temperature;BME280_humidity;BME280_pressure;Samples;Min_cycle;Max_cycle;Signal;HPM_P1;HPM_P2
2022/03/25 00:01:31;;;;;;;69.45;32.20;;;4.80;74.10;;;;;;4915353;29;20067;-71
2022/03/25 00:03:59;;;;;;;88.78;36.13;;;4.80;74.30;;;;;;4927718;29;20490;-70
2022/03/25 00:06:27;;;;;;;82.38;34.38;;;4.80;74.50;;;;;;4934305;29;20066;-70
2022/03/25 00:08:54;;;;;;;79.93;34.03;;;4.80;74.60;;;;;;4916579;29;20055;-70
2022/03/25 00:11:22;;;;;;;85.10;33.83;;;4.70;74.80;;;;;;4937481;29;20058;-70
2022/03/25 00:13:50;;;;;;;87.05;34.97;;;4.70;75.00;;;;;;4938058;29;20406;-70
2022/03/25 00:16:18;;;;;;;74.93;33.05;;;4.70;75.20;;;;;;4937695;29;20509;-70
2022/03/25 00:18:46;;;;;;;89.38;35.15;;;4.70;75.40;;;;;;4905245;29;20508;-70
2022/03/25 00:21:13;;;;;;;79.25;34.80;;;4.70;75.60;;;;;;4937657;29;20051;-70
2022/03/25 00:23:41;;;;;;;84.47;35.33;;;4.60;75.80;;;;;;4936616;29;20074;-70
2022/03/25 00:26:09;;;;;;;94.90;38.35;;;4.60;75.90;;;;;;4937490;29;20071;-70
2022/03/25 00:28:37;;;;;;;100.80;37.97;;;4.50;76.40;;;;;;4936580;29;20048;-70
2022/03/25 00:31:07;;;;;;;101.68;37.35;;;4.50;76.70;;;;;;4904808;29;20052;-70
2022/03/25 00:33:38;;;;;;;94.65;36.95;;;4.50;76.80;;;;;;4920504;29;20414;-70
2022/03/25 00:36:09;;;;;;;87.25;36.53;;;4.50;77.10;;;;;;4920350;29;20062;-70
2022/03/25 00:38:37;;;;;;;88.45;36.80;;;4.40;77.30;;;;;;4936617;29;20071;-70
2022/03/25 00:41:07;;;;;;;87.93;37.60;;;4.30;77.60;;;;;;4919785;29;20055;-70
2022/03/25 00:43:35;;;;;;;92.70;37.92;;;4.30;77.80;;;;;;4936274;29;20063;-70
2022/03/25 00:46:04;;;;;;;81.80;34.45;;;4.30;78.10;;;;;;4919364;29;20054;-70
2022/03/25 00:48:32;;;;;;;83.88;34.72;;;4.30;78.00;;;;;;4919980;29;20048;-70
2022/03/25 00:51:00;;;;;;;75.78;33.53;;;4.30;78.00;;;;;;4936887;29;20398;-70
2022/03/25 00:53:28;;;;;;;75.80;32.83;;;4.20;78.00;;;;;;4904358;29;20058;-70
2022/03/25 00:55:56;;;;;;;72.25;32.05;;;4.10;78.00;;;;;;4920032;29;20063;-71
2022/03/25 00:58:24;;;;;;;62.25;30.90;;;4.00;78.00;;;;;;4920034;29;20062;-70
2022/03/25 01:00:52;;;;;;;68.60;32.97;;;4.00;78.00;;;;;;4904408;29;20039;-70
2022/03/25 01:03:21;;;;;;;71.88;32.50;;;3.90;78.10;;;;;;4935675;29;20044;-70
2022/03/25 01:05:50;;;;;;;69.10;32.42;;;3.90;78.10;;;;;;4934096;29;20429;-70
2022/03/25 01:08:17;;;;;;;66.43;32.10;;;3.80;78.10;;;;;;4917812;29;20044;-69
2022/03/25 01:10:45;;;;;;;66.38;32.55;;;3.80;78.20;;;;;;4934200;29;20541;-70
2022/03/25 01:13:13;;;;;;;91.20;35.22;;;3.80;78.10;;;;;;4933478;29;20056;-70
2022/03/25 01:15:41;;;;;;;81.70;35.22;;;3.90;78.10;;;;;;4935245;29;20047;-70
2022/03/25 01:18:10;;;;;;;78.97;35.63;;;3.90;78.30;;;;;;4935218;29;20044;-70
2022/03/25 01:20:38;;;;;;;77.40;35.30;;;3.90;78.60;;;;;;4934917;29;20060;-70
2022/03/25 01:23:07;;;;;;;83.20;36.30;;;3.90;78.70;;;;;;4919227;29;20413;-70
2022/03/25 01:25:36;;;;;;;96.20;37.75;;;3.90;78.90;;;;;;4936168;29;20043;-70
2022/03/25 01:28:03;;;;;;;83.22;34.63;;;3.90;79.10;;;;;;4935813;29;20044;-70
2022/03/25 01:30:32;;;;;;;83.40;35.63;;;3.80;79.40;;;;;;4919341;29;20048;-70
2022/03/25 01:33:00;;;;;;;108.30;38.70;;;3.80;79.50;;;;;;4919579;29;20052;-70
2022/03/25 01:35:28;;;;;;;89.95;37.33;;;3.80;79.50;;;;;;4933999;29;20485;-70
2022/03/25 01:37:56;;;;;;;109.90;40.97;;;3.70;79.60;;;;;;4935129;29;20070;-70
2022/03/25 01:40:24;;;;;;;98.80;38.53;;;3.70;79.70;;;;;;4934337;29;20048;-70
2022/03/25 01:42:51;;;;;;;99.88;39.47;;;3.70;79.80;;;;;;4935818;29;20052;-70
2022/03/25 01:45:30;;;;;;;103.28;39.10;;;3.60;79.80;;;;;;4936435;29;20059;-70
2022/03/25 01:47:59;;;;;;;90.05;35.25;;;3.60;80.10;;;;;;4936064;29;20509;-70
2022/03/25 01:50:27;;;;;;;86.50;36.20;;;3.50;80.10;;;;;;4936227;29;20663;-70
2022/03/25 01:52:55;;;;;;;91.03;37.53;;;3.50;80.30;;;;;;4918793;29;20067;-70
2022/03/25 01:55:27;;;;;;;88.07;36.42;;;3.50;80.40;;;;;;4936199;29;20043;-69
2022/03/25 01:57:57;;;;;;;89.78;35.58;;;3.40;80.50;;;;;;4918150;29;20059;-69
2022/03/25 02:00:28;;;;;;;79.00;34.25;;;3.40;80.60;;;;;;4903339;29;20062;-70
2022/03/25 02:02:56;;;;;;;76.13;34.00;;;3.40;80.70;;;;;;4935718;29;20142;-70
2022/03/25 02:05:24;;;;;;;77.38;33.20;;;3.30;80.70;;;;;;4935450;29;20051;-70
2022/03/25 02:07:52;;;;;;;71.63;31.83;;;3.30;80.70;;;;;;4918040;29;20067;-70
2022/03/25 02:10:19;;;;;;;82.50;34.90;;;3.30;80.60;;;;;;4935480;29;20040;-70
2022/03/25 02:12:50;;;;;;;80.78;35.10;;;3.30;80.50;;;;;;4934487;29;20520;-70
2022/03/25 02:15:35;;;;;;;84.07;33.67;;;3.20;80.50;;;;;;4918278;29;20445;-70
2022/03/25 02:18:12;;;;;;;87.57;36.20;;;3.20;80.70;;;;;;4918323;29;20532;-70
2022/03/25 02:20:42;;;;;;;89.70;35.20;;;3.20;80.50;;;;;;4918773;29;20051;-70
2022/03/25 02:23:13;;;;;;;81.32;35.30;;;3.20;80.60;;;;;;4918477;29;20047;-71
2022/03/25 02:25:42;;;;;;;79.43;35.25;;;3.20;80.60;;;;;;4903039;29;20063;-70
2022/03/25 02:28:11;;;;;;;79.05;33.90;;;3.20;80.60;;;;;;4902733;29;20056;-70
2022/03/25 02:30:43;;;;;;;85.40;35.22;;;3.10;80.60;;;;;;4918517;29;20048;-70
2022/03/25 02:33:12;;;;;;;86.78;37.38;;;3.10;80.70;;;;;;4917511;29;20514;-70
2022/03/25 02:35:44;;;;;;;88.30;35.53;;;3.10;80.80;;;;;;4934386;29;20056;-70
2022/03/25 02:38:14;;;;;;;86.45;34.97;;;3.00;80.80;;;;;;4901511;29;20043;-70
2022/03/25 02:40:42;;;;;;;90.00;35.13;;;3.00;81.00;;;;;;4917524;29;20047;-70
2022/03/25 02:43:11;;;;;;;97.57;37.75;;;3.00;81.00;;;;;;4916652;29;20058;-70
2022/03/25 02:45:45;;;;;;;97.43;37.92;;;3.00;81.10;;;;;;4918079;29;20044;-70
2022/03/25 02:48:13;;;;;;;87.00;34.83;;;3.00;81.30;;;;;;4917963;29;20051;-71
2022/03/25 02:50:41;;;;;;;92.13;35.47;;;3.00;81.40;;;;;;4917605;29;20051;-70
2022/03/25 02:53:08;;;;;;;85.65;37.13;;;3.00;81.50;;;;;;4933417;29;20059;-70
2022/03/25 02:55:36;;;;;;;77.07;33.45;;;2.90;81.60;;;;;;4933267;29;20070;-70
2022/03/25 02:58:04;;;;;;;77.72;33.20;;;2.80;81.70;;;;;;4916220;29;20050;-70
2022/03/25 03:00:32;;;;;;;81.75;35.15;;;2.80;81.70;;;;;;4932911;29;20040;-70
2022/03/25 03:03:00;;;;;;;80.93;35.97;;;2.70;81.80;;;;;;4933055;29;20062;-70
2022/03/25 03:05:30;;;;;;;76.90;35.38;;;2.70;81.80;;;;;;4916190;29;20485;-70
2022/03/25 03:07:58;;;;;;;91.78;37.95;;;2.70;81.90;;;;;;4932964;29;20051;-70
2022/03/25 03:10:26;;;;;;;99.32;37.72;;;2.70;81.90;;;;;;4916473;29;20417;-70
2022/03/25 03:12:54;;;;;;;96.22;37.20;;;2.70;82.10;;;;;;4934076;29;20070;-70
2022/03/25 03:15:22;;;;;;;98.00;35.90;;;2.70;82.10;;;;;;4917808;29;20055;-70
2022/03/25 03:17:50;;;;;;;89.60;38.13;;;2.70;82.20;;;;;;4917343;29;20498;-70
2022/03/25 03:20:20;;;;;;;100.93;37.63;;;2.60;82.30;;;;;;4917439;29;20056;-70
2022/03/25 03:22:48;;;;;;;96.30;37.25;;;2.60;82.40;;;;;;4933451;29;20506;-70
2022/03/25 03:25:16;;;;;;;84.30;35.65;;;2.60;82.60;;;;;;4933780;29;20063;-70
2022/03/25 03:27:44;;;;;;;81.07;36.53;;;2.50;82.60;;;;;;4934154;29;20048;-69
2022/03/25 03:30:12;;;;;;;82.53;34.65;;;2.50;82.70;;;;;;4934574;29;20043;-70
2022/03/25 03:32:40;;;;;;;81.07;35.53;;;2.50;82.80;;;;;;4917733;29;20103;-70
2022/03/25 03:35:09;;;;;;;82.03;35.30;;;2.40;82.80;;;;;;4933334;29;20055;-70
2022/03/25 03:37:42;;;;;;;76.22;34.47;;;2.40;82.80;;;;;;4934220;29;20059;-70
2022/03/25 03:40:11;;;;;;;100.90;38.47;;;2.40;82.80;;;;;;4916980;29;20390;-70
2022/03/25 03:42:39;;;;;;;104.57;37.97;;;2.40;82.80;;;;;;4934079;29;20511;-70
2022/03/25 03:45:08;;;;;;;84.80;36.35;;;2.30;82.90;;;;;;4897264;29;20403;-70
2022/03/25 03:47:36;;;;;;;86.85;35.15;;;2.40;83.00;;;;;;4927598;29;20681;-70
2022/03/25 03:50:05;;;;;;;88.30;37.53;;;2.40;82.90;;;;;;4933889;29;20055;-69
2022/03/25 03:52:33;;;;;;;98.18;38.08;;;2.30;83.00;;;;;;4916732;29;20066;-70
2022/03/25 03:55:04;;;;;;;84.35;34.80;;;2.30;83.10;;;;;;4934304;29;20044;-70
2022/03/25 03:57:32;;;;;;;98.18;36.08;;;2.30;83.20;;;;;;4917224;29;20054;-70
2022/03/25 04:00:00;;;;;;;90.95;35.13;;;2.30;83.30;;;;;;4933797;29;20055;-70
2022/03/25 04:02:27;;;;;;;86.00;34.75;;;2.20;83.30;;;;;;4917219;29;20055;-70
2022/03/25 04:04:55;;;;;;;88.75;36.22;;;2.20;83.40;;;;;;4917135;29;20044;-70
2022/03/25 04:07:23;;;;;;;91.05;37.08;;;2.10;83.40;;;;;;4933284;29;20507;-70
2022/03/25 04:09:50;;;;;;;92.20;37.60;;;2.10;83.50;;;;;;4933048;29;20054;-70
2022/03/25 04:12:18;;;;;;;82.47;36.38;;;2.00;83.60;;;;;;4917227;29;20056;-70
2022/03/25 04:14:45;;;;;;;85.88;35.20;;;2.00;83.70;;;;;;4916900;29;20448;-70
2022/03/25 04:17:13;;;;;;;85.00;36.33;;;1.90;83.70;;;;;;4933768;29;20052;-69
2022/03/25 04:19:41;;;;;;;91.10;36.33;;;1.90;83.80;;;;;;4933752;29;20066;-70
2022/03/25 04:22:09;;;;;;;89.13;36.75;;;1.80;83.90;;;;;;4917091;29;20553;-70
2022/03/25 04:24:37;;;;;;;83.50;34.08;;;1.80;84.00;;;;;;4934051;29;20063;-70
2022/03/25 04:27:04;;;;;;;94.45;36.20;;;1.80;84.00;;;;;;4932399;29;20047;-70
2022/03/25 04:29:32;;;;;;;95.78;36.67;;;1.80;84.10;;;;;;4932587;29;20074;-70
2022/03/25 04:32:00;;;;;;;109.55;38.67;;;1.80;84.10;;;;;;4933828;29;20047;-69
2022/03/25 04:34:28;;;;;;;108.78;37.35;;;1.80;84.20;;;;;;4916727;29;20051;-70
2022/03/25 04:36:55;;;;;;;100.43;38.08;;;1.80;84.20;;;;;;4900909;29;20052;-70
2022/03/25 04:39:23;;;;;;;92.07;37.28;;;1.80;84.30;;;;;;4933209;29;20047;-70
2022/03/25 04:41:51;;;;;;;94.13;39.03;;;1.70;84.30;;;;;;4915911;29;20081;-69
2022/03/25 04:44:18;;;;;;;92.18;36.47;;;1.70;84.40;;;;;;4918894;29;20414;-70
2022/03/25 04:46:46;;;;;;;97.45;36.55;;;1.70;84.50;;;;;;4931648;29;20070;-70
2022/03/25 04:49:19;;;;;;;;;;;1.60;84.60;;;;;;4915413;29;20051;-70
2022/03/25 04:51:46;;;;;;;86.75;36.20;;;1.60;84.60;;;;;;4914499;29;19923;-70
2022/03/25 04:54:14;;;;;;;94.32;35.95;;;1.50;84.50;;;;;;4931035;29;20375;-70
2022/03/25 04:56:42;;;;;;;90.95;38.38;;;1.50;84.50;;;;;;4917398;29;20070;-70
2022/03/25 04:59:11;;;;;;;102.72;38.65;;;1.50;84.60;;;;;;4934698;29;20428;-70
2022/03/25 05:01:39;;;;;;;108.93;39.58;;;1.50;84.60;;;;;;4934682;29;20047;-70
2022/03/25 05:04:06;;;;;;;94.65;36.95;;;1.50;84.70;;;;;;4903775;29;20066;-70
2022/03/25 05:06:34;;;;;;;107.43;37.88;;;1.50;84.70;;;;;;4936973;29;20039;-70
2022/03/25 05:09:02;;;;;;;98.57;37.05;;;1.50;84.70;;;;;;4931245;29;20058;-70
2022/03/25 05:11:29;;;;;;;98.90;37.40;;;1.50;84.70;;;;;;4937014;29;20044;-70
2022/03/25 05:13:57;;;;;;;89.47;35.97;;;1.50;84.80;;;;;;4936430;29;20063;-70
2022/03/25 05:16:25;;;;;;;90.70;36.38;;;1.40;84.90;;;;;;4936100;29;20047;-70
2022/03/25 05:18:53;;;;;;;89.72;35.65;;;1.40;84.90;;;;;;4936588;29;20060;-70
2022/03/25 05:21:20;;;;;;;91.20;36.85;;;1.40;85.00;;;;;;4936763;29;20044;-70
2022/03/25 05:23:48;;;;;;;88.90;37.65;;;1.30;85.00;;;;;;4936446;29;20044;-70
2022/03/25 05:26:16;;;;;;;89.40;37.78;;;1.30;85.10;;;;;;4936961;29;20055;-70
2022/03/25 05:28:48;;;;;;;89.50;37.78;;;1.30;85.10;;;;;;4936264;29;20039;-70
2022/03/25 05:31:16;;;;;;;89.82;35.67;;;1.30;85.10;;;;;;4936615;29;20056;-70
2022/03/25 05:33:44;;;;;;;90.13;36.75;;;1.30;85.10;;;;;;4934869;29;20124;-69
2022/03/25 05:36:11;;;;;;;93.75;38.80;;;1.30;85.20;;;;;;4935761;29;20402;-70
2022/03/25 05:38:39;;;;;;;103.82;36.50;;;1.20;85.20;;;;;;4936337;29;20427;-70
2022/03/25 05:41:07;;;;;;;112.43;39.17;;;1.20;85.30;;;;;;4918455;29;20044;-69
2022/03/25 05:43:35;;;;;;;111.35;40.30;;;1.20;85.40;;;;;;4936245;29;20721;-69
2022/03/25 05:46:03;;;;;;;102.43;39.63;;;1.30;85.40;;;;;;4936153;29;20047;-70
2022/03/25 05:48:31;;;;;;;112.35;39.75;;;1.30;85.40;;;;;;4934919;29;21636;-70
2022/03/25 05:50:59;;;;;;;102.38;37.20;;;1.30;85.40;;;;;;4918569;29;20568;-70
2022/03/25 05:53:27;;;;;;;111.18;38.38;;;1.20;85.40;;;;;;4902623;29;20073;-70
2022/03/25 05:55:59;;;;;;;105.22;39.70;;;1.20;85.50;;;;;;4935994;29;20387;-70
2022/03/25 05:58:37;;;;;;;107.43;38.15;;;1.20;85.60;;;;;;4935806;29;20059;-70
2022/03/25 06:01:07;;;;;;;100.90;37.35;;;1.10;85.70;;;;;;4934417;29;20494;-70
2022/03/25 06:03:35;;;;;;;100.57;38.08;;;1.10;85.70;;;;;;4935149;29;20786;-70
2022/03/25 06:06:07;;;;;;;96.20;37.92;;;1.10;85.70;;;;;;4931936;29;20507;-71
2022/03/25 06:08:35;;;;;;;94.35;37.22;;;1.00;85.80;;;;;;4930947;29;20044;-70
2022/03/25 06:11:03;;;;;;;98.45;38.45;;;1.00;85.90;;;;;;4929538;29;20051;-70
2022/03/25 06:13:31;;;;;;;94.45;36.92;;;1.00;85.90;;;;;;4930291;29;20066;-70
2022/03/25 06:15:59;;;;;;;88.43;37.28;;;1.00;86.00;;;;;;4910393;29;20047;-70
2022/03/25 06:18:27;;;;;;;88.35;36.50;;;1.00;86.00;;;;;;4925073;29;20055;-70
2022/03/25 06:20:54;;;;;;;91.78;37.95;;;1.00;86.00;;;;;;4907108;29;20043;-70
2022/03/25 06:23:23;;;;;;;91.82;36.72;;;1.00;86.00;;;;;;4929654;29;20048;-70
2022/03/25 06:25:51;;;;;;;101.45;40.92;;;1.00;86.10;;;;;;4925459;29;20421;-70
2022/03/25 06:28:22;;;;;;;97.53;39.97;;;1.00;86.10;;;;;;4909055;29;20055;-70
2022/03/25 06:30:50;;;;;;;100.32;39.78;;;1.00;86.10;;;;;;4912273;29;20052;-70
2022/03/25 06:33:18;;;;;;;109.80;40.05;;;1.00;86.10;;;;;;4925757;29;20047;-70
2022/03/25 06:35:45;;;;;;;93.75;37.90;;;1.10;86.10;;;;;;4932898;29;20512;-70
2022/03/25 06:38:13;;;;;;;115.32;42.17;;;1.00;86.10;;;;;;4933000;29;20063;-69
2022/03/25 06:40:41;;;;;;;110.38;39.90;;;1.10;86.10;;;;;;4932411;29;20421;-69
2022/03/25 06:43:08;;;;;;;120.45;42.38;;;1.20;86.10;;;;;;4933199;29;20047;-70
2022/03/25 06:45:36;;;;;;;124.68;44.05;;;1.30;86.10;;;;;;4932767;29;20070;-70
2022/03/25 06:48:05;;;;;;;112.22;40.70;;;1.30;86.10;;;;;;4915962;29;20091;-69
2022/03/25 06:50:33;;;;;;;105.78;38.88;;;1.30;86.10;;;;;;4928700;29;20039;-69
2022/03/25 06:53:02;;;;;;;105.45;38.42;;;1.40;86.10;;;;;;4934165;29;20044;-70
2022/03/25 06:55:31;;;;;;;105.07;39.42;;;1.40;86.10;;;;;;4933545;29;20079;-70
2022/03/25 06:57:58;;;;;;;118.38;42.78;;;1.40;86.20;;;;;;4916798;29;20611;-70
2022/03/25 07:00:27;;;;;;;114.93;40.13;;;1.50;86.20;;;;;;4934572;29;20039;-70
2022/03/25 07:02:55;;;;;;;105.63;39.53;;;1.50;86.20;;;;;;4917569;29;20048;-69
2022/03/25 07:05:24;;;;;;;107.85;38.70;;;1.60;86.10;;;;;;4910860;29;20047;-70
2022/03/25 07:07:52;;;;;;;87.90;36.63;;;1.70;86.10;;;;;;4912133;29;20528;-70
2022/03/25 07:10:23;;;;;;;90.10;36.03;;;1.80;86.10;;;;;;4914538;29;20059;-70
2022/03/25 07:12:52;;;;;;;84.22;37.20;;;1.80;86.10;;;;;;4916333;29;20036;-71
2022/03/25 07:15:20;;;;;;;91.60;37.70;;;2.00;86.00;;;;;;4916863;29;20524;-71
2022/03/25 07:17:48;;;;;;;104.45;39.17;;;2.00;86.00;;;;;;4916608;29;20051;-71
2022/03/25 07:20:17;;;;;;;95.05;37.50;;;2.10;85.80;;;;;;4934413;29;20054;-71
2022/03/25 07:22:50;;;;;;;87.88;37.97;;;2.20;85.80;;;;;;4930948;29;20059;-70
2022/03/25 07:25:19;;;;;;;81.65;36.50;;;2.30;85.70;;;;;;4926879;29;20047;-70
2022/03/25 07:27:48;;;;;;;87.78;36.30;;;2.40;85.70;;;;;;4933672;29;20441;-70
2022/03/25 07:30:17;;;;;;;92.47;38.08;;;2.50;85.60;;;;;;4926957;29;20051;-70
2022/03/25 07:32:45;;;;;;;107.88;39.92;;;2.60;85.50;;;;;;4933780;29;20044;-72
2022/03/25 07:35:14;;;;;;;92.93;37.95;;;2.70;85.50;;;;;;4917186;29;20062;-71
2022/03/25 07:37:42;;;;;;;89.97;36.55;;;2.80;85.40;;;;;;4933806;29;20401;-71
2022/03/25 07:40:12;;;;;;;90.25;36.95;;;2.90;85.30;;;;;;4934054;29;20546;-70
2022/03/25 07:42:42;;;;;;;89.13;37.45;;;3.00;85.30;;;;;;4933485;29;20118;-71
2022/03/25 07:45:15;;;;;;;89.22;37.38;;;3.20;85.20;;;;;;4917213;29;20058;-70
2022/03/25 07:47:48;;;;;;;89.95;37.65;;;3.20;85.00;;;;;;4926969;29;20048;-70
2022/03/25 07:50:18;;;;;;;87.57;37.95;;;3.40;84.90;;;;;;4931200;29;20040;-69
2022/03/25 07:52:47;;;;;;;94.93;40.25;;;3.50;84.90;;;;;;4934375;29;20410;-70
2022/03/25 07:55:20;;;;;;;90.20;38.13;;;3.60;84.70;;;;;;4916889;29;20060;-70
2022/03/25 07:57:50;;;;;;;85.80;39.03;;;3.80;84.60;;;;;;4933929;29;20063;-70
2022/03/25 08:00:19;;;;;;;84.07;37.47;;;3.80;84.60;;;;;;4916905;29;20505;-70
2022/03/25 08:02:50;;;;;;;89.43;37.85;;;4.00;84.50;;;;;;4899721;29;20730;-69
2022/03/25 08:05:19;;;;;;;192.32;86.95;;;4.20;84.30;;;;;;4933890;29;20059;-69
2022/03/25 08:07:54;;;;;;;1921.38;844.60;;;4.30;84.20;;;;;;4915052;29;20055;-72
2022/03/25 08:10:25;;;;;;;411.40;214.60;;;4.50;85.90;;;;;;4931874;29;20048;-69
2022/03/25 08:12:56;;;;;;;127.38;65.47;;;4.70;86.40;;;;;;4933380;29;20047;-69
2022/03/25 08:15:28;;;;;;;179.90;79.80;;;4.90;86.10;;;;;;4914161;29;20060;-69
2022/03/25 08:17:58;;;;;;;97.63;46.40;;;5.00;85.80;;;;;;4925252;29;20051;-70
2022/03/25 08:20:33;;;;;;;93.88;41.95;;;5.20;85.60;;;;;;4928681;29;20059;-70
2022/03/25 08:23:02;;;;;;;91.22;40.72;;;5.30;85.20;;;;;;4928815;29;20629;-69
2022/03/25 08:28:18;;;;;;;81.55;39.83;;;5.60;84.50;;;;;;4929297;29;20051;-70
2022/03/25 08:30:47;;;;;;;74.93;36.80;;;5.80;84.00;;;;;;4911946;29;20062;-69
2022/03/25 08:33:16;;;;;;;81.95;37.70;;;6.00;83.50;;;;;;4925970;29;20044;-69
2022/03/25 08:35:45;;;;;;;88.28;38.08;;;6.20;83.00;;;;;;4926499;29;20047;-69
2022/03/25 08:38:12;;;;;;;74.47;35.60;;;6.30;82.40;;;;;;4914382;29;20524;-69
2022/03/25 08:40:41;;;;;;;77.15;35.80;;;6.50;81.90;;;;;;4932583;29;20529;-69
2022/03/25 08:43:29;;;;;;;78.47;35.97;;;6.70;81.30;;;;;;4933889;29;20051;-69
2022/03/25 08:45:57;;;;;;;76.07;33.63;;;6.90;80.20;;;;;;4934010;29;20056;-69
2022/03/25 08:48:25;;;;;;;71.05;33.63;;;7.10;79.80;;;;;;4933752;29;20054;-69
2022/03/25 08:50:53;;;;;;;73.28;34.33;;;7.30;79.10;;;;;;4916622;29;20056;-70
2022/03/25 08:53:21;;;;;;;75.18;33.95;;;7.50;78.30;;;;;;4932815;29;20063;-70
2022/03/25 08:55:49;;;;;;;71.93;32.88;;;7.70;77.70;;;;;;4934112;29;20063;-69
2022/03/25 08:58:16;;;;;;;76.55;34.95;;;7.90;76.70;;;;;;4933602;29;20066;-69
2022/03/25 09:00:44;;;;;;;70.28;34.50;;;8.20;76.10;;;;;;4933764;29;20497;-70
2022/03/25 09:03:12;;;;;;;72.25;33.42;;;8.30;75.40;;;;;;4916331;29;20383;-70
2022/03/25 09:05:40;;;;;;;74.13;35.03;;;8.60;74.40;;;;;;4933560;29;20504;-70
2022/03/25 09:08:08;;;;;;;73.32;33.10;;;8.80;73.80;;;;;;4933552;29;20054;-70
2022/03/25 09:10:35;;;;;;;79.10;35.13;;;9.00;73.00;;;;;;4933481;29;20063;-70
2022/03/25 09:13:03;;;;;;;79.03;33.55;;;9.30;72.00;;;;;;4933300;29;20056;-70
2022/03/25 09:15:31;;;;;;;74.30;34.47;;;9.50;70.90;;;;;;4931523;29;20051;-70
2022/03/25 09:17:59;;;;;;;67.90;31.70;;;9.80;70.40;;;;;;4928857;29;20098;-70
2022/03/25 09:20:32;;;;;;;66.15;32.78;;;10.00;69.30;;;;;;4932438;29;20047;-70
2022/03/25 09:23:00;;;;;;;66.32;32.00;;;10.20;68.50;;;;;;4933233;29;20559;-69
2022/03/25 09:25:29;;;;;;;68.95;32.05;;;10.40;67.40;;;;;;4933485;29;20056;-70
2022/03/25 09:27:57;;;;;;;63.80;31.98;;;10.70;66.40;;;;;;4899953;29;20055;-70
2022/03/25 09:30:24;;;;;;;76.55;32.28;;;10.90;65.60;;;;;;4933193;29;20051;-69
2022/03/25 09:33:03;;;;;;;77.40;32.50;;;11.20;64.20;;;;;;4932970;29;20056;-70
2022/03/25 09:35:35;;;;;;;72.90;31.85;;;11.50;63.30;;;;;;4933595;29;20056;-70
2022/03/25 09:38:04;;;;;;;66.97;28.98;;;11.80;62.20;;;;;;4933577;29;20051;-70
2022/03/25 09:40:32;;;;;;;52.60;27.38;;;12.00;60.90;;;;;;4933089;29;20220;-70
2022/03/25 09:43:00;;;;;;;58.47;26.70;;;12.30;59.60;;;;;;4914706;29;20070;-70
2022/03/25 09:45:30;;;;;;;49.10;25.33;;;12.60;57.90;;;;;;4933113;29;20056;-73
2022/03/25 09:47:58;;;;;;;50.17;25.90;;;12.80;55.90;;;;;;4933863;29;20060;-73
2022/03/25 09:50:27;;;;;;;54.70;27.35;;;13.10;54.50;;;;;;4933072;29;20534;-70
2022/03/25 09:52:55;;;;;;;56.58;27.20;;;13.30;51.70;;;;;;4931781;29;20051;-69
2022/03/25 09:55:41;;;;;;;51.10;25.95;;;13.50;52.00;;;;;;4933746;29;20044;-69
2022/03/25 09:58:12;;;;;;;49.35;25.35;;;13.80;50.50;;;;;;4911075;29;20052;-69
2022/03/25 10:00:40;;;;;;;54.80;26.33;;;13.90;50.40;;;;;;4927770;29;20063;-70
2022/03/25 10:03:25;;;;;;;48.47;26.02;;;14.10;48.80;;;;;;4931725;29;20051;-69
2022/03/25 10:05:58;;;;;;;51.72;25.75;;;14.20;48.00;;;;;;4932365;29;20055;-70
2022/03/25 10:08:44;;;;;;;46.45;24.30;;;14.30;48.30;;;;;;4915163;29;20055;-70
2022/03/25 10:11:19;;;;;;;46.72;24.15;;;14.60;48.40;;;;;;4931613;29;20505;-69
2022/03/25 10:13:47;;;;;;;45.33;23.48;;;14.80;47.60;;;;;;4930317;29;20488;-69
2022/03/25 10:16:30;;;;;;;46.42;23.55;;;15.00;47.50;;;;;;4930160;29;20517;-70
2022/03/25 10:18:58;;;;;;;42.10;21.52;;;15.30;46.00;;;;;;4930624;29;20075;-71
2022/03/25 10:21:29;;;;;;;51.17;22.42;;;15.50;44.70;;;;;;4930563;29;20052;-71
2022/03/25 10:23:56;;;;;;;35.92;19.42;;;15.60;44.20;;;;;;4930400;29;20047;-69
2022/03/25 10:26:36;;;;;;;35.10;18.58;;;15.70;43.10;;;;;;4929823;29;20063;-70
2022/03/25 10:29:20;;;;;;;35.95;18.73;;;15.80;41.60;;;;;;4931180;29;20058;-69
2022/03/25 10:32:09;;;;;;;40.03;18.50;;;16.00;41.20;;;;;;4931889;29;20514;-70
2022/03/25 10:34:40;;;;;;;42.65;19.27;;;16.20;40.30;;;;;;4931764;29;20058;-69
2022/03/25 10:37:14;;;;;;;34.33;17.30;;;16.30;40.00;;;;;;4931890;29;20303;-70
2022/03/25 10:39:52;;;;;;;29.27;15.75;;;16.60;39.50;;;;;;4931191;29;20148;-70
2022/03/25 10:42:20;;;;;;;30.90;15.48;;;16.80;38.50;;;;;;4917261;29;20051;-70
2022/03/25 10:44:47;;;;;;;34.60;16.38;;;17.00;38.30;;;;;;4913833;29;20524;-70
2022/03/25 10:47:15;;;;;;;35.63;16.52;;;17.30;37.70;;;;;;4931460;29;20059;-69
2022/03/25 10:49:46;;;;;;;32.78;15.70;;;17.30;37.40;;;;;;4930232;29;20050;-70
2022/03/25 10:52:34;;;;;;;32.70;14.45;;;17.30;37.80;;;;;;4925686;29;20074;-70
2022/03/25 10:55:18;;;;;;;30.17;14.77;;;17.50;37.10;;;;;;4931054;29;20063;-72
2022/03/25 10:57:51;;;;;;;28.48;14.50;;;17.80;36.30;;;;;;4931444;29;20071;-69
2022/03/25 11:00:23;;;;;;;43.38;17.95;;;18.00;36.60;;;;;;4914123;29;20040;-69
2022/03/25 11:02:52;;;;;;;30.42;17.17;;;18.20;36.60;;;;;;4914365;29;20054;-70
2022/03/25 11:05:20;;;;;;;28.05;14.43;;;18.30;35.80;;;;;;4931372;29;20051;-69
2022/03/25 11:07:50;;;;;;;27.50;13.45;;;18.30;34.50;;;;;;4930449;29;20055;-69
2022/03/25 11:10:18;;;;;;;28.48;14.05;;;18.10;34.40;;;;;;4931193;29;20056;-70
2022/03/25 11:12:51;;;;;;;27.10;12.98;;;17.90;34.00;;;;;;4931388;29;20052;-70
2022/03/25 11:15:20;;;;;;;29.73;13.90;;;17.70;34.10;;;;;;4930646;29;20066;-69
2022/03/25 11:17:48;;;;;;;29.88;14.13;;;17.60;34.50;;;;;;4930063;29;20064;-69
2022/03/25 11:20:18;;;;;;;28.73;14.32;;;17.50;34.50;;;;;;4931021;29;20056;-70
2022/03/25 11:23:15;;;;;;;32.45;13.45;;;17.40;33.50;;;;;;4913878;29;20051;-70
2022/03/25 11:25:46;;;;;;;30.20;13.45;;;17.30;34.20;;;;;;4931202;29;20055;-70
2022/03/25 11:28:19;;;;;;;31.00;12.60;;;17.20;34.80;;;;;;4928050;29;20055;-69
2022/03/25 11:31:04;;;;;;;26.80;12.75;;;17.10;35.10;;;;;;4919715;29;20059;-68
2022/03/25 11:33:52;;;;;;;24.17;11.98;;;17.10;35.30;;;;;;4929267;29;20067;-68
2022/03/25 11:36:20;;;;;;;28.52;11.23;;;17.20;35.30;;;;;;4924264;29;20055;-69
2022/03/25 11:39:07;;;;;;;25.58;11.40;;;17.30;34.80;;;;;;4927498;29;20058;-68
2022/03/25 11:41:35;;;;;;;25.92;12.05;;;17.40;35.20;;;;;;4925946;29;20067;-69
2022/03/25 11:44:15;;;;;;;27.00;12.30;;;17.70;35.30;;;;;;4917512;29;20052;-68
2022/03/25 11:47:01;;;;;;;25.58;12.10;;;17.90;34.80;;;;;;4928888;29;20058;-68
2022/03/25 11:49:36;;;;;;;24.08;12.18;;;18.10;33.80;;;;;;4930162;29;20051;-68
2022/03/25 11:52:16;;;;;;;20.00;11.90;;;18.20;34.10;;;;;;4932418;29;20070;-68
2022/03/25 11:54:44;;;;;;;20.00;11.48;;;18.40;34.00;;;;;;4928066;29;20083;-68
2022/03/25 11:57:34;;;;;;;24.35;12.82;;;18.60;33.00;;;;;;4914767;29;20056;-67
2022/03/25 12:00:06;;;;;;;22.15;11.98;;;18.70;32.60;;;;;;4914578;29;20051;-68
2022/03/25 12:02:38;;;;;;;26.42;12.98;;;18.70;33.50;;;;;;4932050;29;20063;-68
2022/03/25 12:05:29;;;;;;;26.80;13.37;;;18.80;33.70;;;;;;4932464;29;20381;-68
2022/03/25 12:08:32;;;;;;;30.83;13.35;;;19.00;33.90;;;;;;4920262;29;20071;-68
2022/03/25 12:11:00;;;;;;;25.17;13.18;;;19.30;33.90;;;;;;4929385;29;20060;-70
2022/03/25 12:13:56;;;;;;;20.88;13.15;;;19.50;34.10;;;;;;4933615;29;20055;-69
2022/03/25 12:16:45;;;;;;;26.08;12.68;;;19.80;33.30;;;;;;4937114;29;20553;-70
2022/03/25 12:19:26;;;;;;;23.15;12.32;;;20.20;32.30;;;;;;4937402;29;20048;-70
2022/03/25 12:22:17;;;;;;;24.00;12.95;;;20.40;32.80;;;;;;4920817;29;20059;-70
2022/03/25 12:24:49;;;;;;;25.63;12.20;;;20.70;31.80;;;;;;4925963;29;20051;-71
2022/03/25 12:27:19;;;;;;;19.80;11.45;;;21.00;31.70;;;;;;4905509;29;20055;-71
2022/03/25 12:29:51;;;;;;;21.63;11.77;;;21.30;31.50;;;;;;4937168;29;20498;-72
2022/03/25 12:32:21;;;;;;;21.05;12.00;;;21.70;31.10;;;;;;4937651;29;20058;-73
2022/03/25 12:35:01;;;;;;;28.90;13.10;;;21.90;30.40;;;;;;4937499;29;20050;-72
2022/03/25 12:37:35;;;;;;;22.10;12.07;;;22.10;30.00;;;;;;4923385;29;20048;-73
2022/03/25 12:40:32;;;;;;;;;;;22.20;30.10;;;;;;4932390;29;20050;-73
2022/03/25 12:43:08;;;;;;;22.55;12.38;;;22.40;29.80;;;;;;4921226;29;19930;-73
2022/03/25 12:45:41;;;;;;;18.98;11.60;;;22.80;30.20;;;;;;4927152;29;20051;-74
2022/03/25 12:48:18;;;;;;;29.27;11.80;;;23.20;29.60;;;;;;4927761;29;20051;-73
2022/03/25 12:50:57;;;;;;;23.38;12.15;;;23.40;28.40;;;;;;4936239;29;20052;-73
2022/03/25 12:53:27;;;;;;;24.45;12.80;;;23.50;28.50;;;;;;4936869;29;20060;-73